createdAt,value
2023-02-06T00:00:53.855Z,577.00
2023-02-06T00:01:53.926Z,577.00
2023-02-06T00:02:53.976Z,578.00
2023-02-06T00:03:53.925Z,577.00
2023-02-06T00:04:53.947Z,576.00
2023-02-06T00:05:53.964Z,577.00
2023-02-06T00:06:53.959Z,577.00
2023-02-06T00:07:53.996Z,577.00
2023-02-06T00:08:53.998Z,582.00
2023-02-06T00:09:53.994Z,583.00
2023-02-06T00:10:54.047Z,584.00
2023-02-06T00:11:54.036Z,582.00
2023-02-06T00:12:54.074Z,582.00
2023-02-06T00:13:54.060Z,582.00
2023-02-06T00:14:54.084Z,584.00
2023-02-06T00:15:54.132Z,585.00
2023-02-06T00:16:54.121Z,582.00
2023-02-06T00:17:54.220Z,581.00
2023-02-06T00:20:09.933Z,573.00
2023-02-06T00:21:09.928Z,569.00
2023-02-06T00:22:09.982Z,571.00
2023-02-06T00:23:09.898Z,573.00
2023-02-06T00:26:09.890Z,576.00
2023-02-06T00:27:09.869Z,578.00
2023-02-06T00:28:10.024Z,580.00
2023-02-06T00:29:09.879Z,582.00
2023-02-06T00:30:09.882Z,587.00
2023-02-06T00:31:09.970Z,590.00
2023-02-06T00:32:09.870Z,593.00
2023-02-06T02:44:12.447Z,576.00
2023-02-06T02:45:12.580Z,576.00
2023-02-06T02:46:12.557Z,577.00
2023-02-06T02:47:12.606Z,581.00
2023-02-06T02:48:12.644Z,582.00
2023-02-06T02:49:12.738Z,582.00
2023-02-06T02:50:12.745Z,580.00
2023-02-06T02:51:12.796Z,579.00
2023-02-06T02:52:12.833Z,581.00
2023-02-06T02:53:12.912Z,583.00
2023-02-06T02:54:12.949Z,584.00
2023-02-06T02:55:13.000Z,587.00
2023-02-06T02:56:13.065Z,586.00
2023-02-06T02:57:13.103Z,586.00
2023-02-06T02:58:13.200Z,585.00
2023-02-06T02:59:13.183Z,586.00
2023-02-06T03:00:13.238Z,585.00
2023-02-06T03:01:13.329Z,583.00
2023-02-06T03:02:13.390Z,585.00
2023-02-06T03:03:13.374Z,585.00
2023-02-06T03:04:13.466Z,582.00
2023-02-06T03:05:13.481Z,583.00
2023-02-06T03:06:13.536Z,584.00
2023-02-06T03:07:13.527Z,586.00
2023-02-06T03:08:13.683Z,586.00
2023-02-06T03:09:13.650Z,586.00
2023-02-06T03:10:13.707Z,587.00
2023-02-06T03:11:13.744Z,587.00
2023-02-06T03:12:13.803Z,590.00
2023-02-06T03:13:13.824Z,590.00
2023-02-06T03:14:13.930Z,589.00
2023-02-06T03:15:13.910Z,590.00
2023-02-06T03:16:14.013Z,587.00
2023-02-06T03:17:14.030Z,587.00
2023-02-06T03:18:14.079Z,588.00
2023-02-06T03:19:14.106Z,587.00
2023-02-06T03:20:14.142Z,588.00
2023-02-06T03:21:14.180Z,591.00
2023-02-06T03:22:14.234Z,593.00
2023-02-06T03:23:14.283Z,592.00
2023-02-06T03:24:14.412Z,593.00
2023-02-06T03:25:14.363Z,592.00
2023-02-06T03:26:14.385Z,594.00
2023-02-06T03:27:14.436Z,592.00
2023-02-06T03:28:14.631Z,591.00
2023-02-06T03:29:14.514Z,589.00
2023-02-06T03:30:14.572Z,589.00
2023-02-06T03:31:14.612Z,588.00
2023-02-06T03:32:14.641Z,591.00
2023-02-06T03:33:14.684Z,592.00
2023-02-06T03:34:14.759Z,590.00
2023-02-06T03:35:14.789Z,590.00
2023-02-06T03:36:14.804Z,588.00
2023-02-06T03:37:14.860Z,588.00
2023-02-06T03:38:14.911Z,587.00
2023-02-06T03:39:14.966Z,587.00
2023-02-06T03:40:14.974Z,588.00
2023-02-06T03:41:15.006Z,586.00
2023-02-06T03:42:15.074Z,585.00
2023-02-06T03:43:15.074Z,584.00
2023-02-06T03:44:15.120Z,582.00
2023-02-06T03:45:15.183Z,582.00
2023-02-06T03:46:15.257Z,582.00
2023-02-06T03:47:15.230Z,582.00
2023-02-06T03:48:15.301Z,585.00
2023-02-06T03:49:15.297Z,585.00
2023-02-06T03:50:15.353Z,585.00
2023-02-06T03:51:15.377Z,586.00
2023-02-06T03:52:15.445Z,586.00
2023-02-06T03:53:15.500Z,588.00
2023-02-06T03:54:15.521Z,588.00
2023-02-06T03:55:15.596Z,590.00
2023-02-06T03:56:15.582Z,591.00
2023-02-06T03:57:15.651Z,593.00
2023-02-06T03:58:15.685Z,591.00
2023-02-06T03:59:15.726Z,590.00
2023-02-06T04:00:15.757Z,589.00
2023-02-06T04:01:15.826Z,586.00
2023-02-06T04:02:15.858Z,585.00
2023-02-06T04:03:15.840Z,584.00
2023-02-06T04:04:15.855Z,586.00
2023-02-06T04:05:16.013Z,585.00
2023-02-06T04:06:15.936Z,583.00
2023-02-06T04:07:16.007Z,585.00
2023-02-06T04:08:16.010Z,587.00
2023-02-06T04:09:16.067Z,589.00
2023-02-06T04:10:16.101Z,589.00
2023-02-06T04:11:16.115Z,585.00
2023-02-06T04:12:16.145Z,586.00
2023-02-06T04:13:16.174Z,583.00
2023-02-06T04:14:16.225Z,584.00
2023-02-06T04:15:16.267Z,586.00
2023-02-06T04:16:16.321Z,586.00
2023-02-06T04:17:31.354Z,590.00
2023-02-06T04:18:17.338Z,589.00
2023-02-06T04:19:16.322Z,585.00
2023-02-06T04:20:16.322Z,583.00
2023-02-06T04:21:16.306Z,582.00
2023-02-06T04:22:16.286Z,583.00
2023-02-06T04:23:16.276Z,582.00
2023-02-06T04:24:16.326Z,581.00
2023-02-06T04:25:16.266Z,583.00
2023-02-06T04:26:16.284Z,583.00
2023-02-06T04:27:16.285Z,583.00
2023-02-06T04:28:16.909Z,581.00
2023-02-06T04:29:16.267Z,582.00
2023-02-06T04:30:16.224Z,584.00
2023-02-06T04:31:16.306Z,582.00
2023-02-06T04:32:16.237Z,582.00
2023-02-06T04:33:16.279Z,583.00
2023-02-06T04:34:16.353Z,586.00
2023-02-06T04:35:16.478Z,586.00
2023-02-06T04:36:16.369Z,586.00
2023-02-06T04:37:16.537Z,586.00
2023-02-06T04:38:16.465Z,588.00
2023-02-06T04:39:16.515Z,588.00
2023-02-06T04:40:16.529Z,586.00
2023-02-06T04:41:16.575Z,587.00
2023-02-06T04:42:16.619Z,586.00
2023-02-06T04:43:16.707Z,584.00
2023-02-06T04:44:16.674Z,584.00
2023-02-06T04:45:16.714Z,587.00
2023-02-06T04:46:16.797Z,588.00
2023-02-06T04:47:16.837Z,590.00
2023-02-06T04:48:16.829Z,591.00
2023-02-06T04:49:16.854Z,587.00
2023-02-06T04:50:16.937Z,589.00
2023-02-06T04:51:16.949Z,588.00
2023-02-06T04:52:16.998Z,589.00
2023-02-06T04:53:17.030Z,588.00
2023-02-06T04:54:17.080Z,590.00
2023-02-06T04:55:17.107Z,590.00
2023-02-06T04:56:17.208Z,589.00
2023-02-06T04:57:17.214Z,589.00
2023-02-06T04:58:17.274Z,591.00
2023-02-06T04:59:17.316Z,594.00
2023-02-06T05:00:17.373Z,593.00
2023-02-06T05:01:17.413Z,592.00
2023-02-06T05:02:17.514Z,590.00
2023-02-06T05:03:17.522Z,588.00
2023-02-06T05:04:17.548Z,589.00
2023-02-06T05:05:17.595Z,589.00
2023-02-06T05:06:17.622Z,589.00
2023-02-06T05:07:17.709Z,589.00
2023-02-06T05:08:17.767Z,589.00
2023-02-06T05:09:17.810Z,590.00
2023-02-06T05:10:17.874Z,590.00
2023-02-06T05:11:17.896Z,587.00
2023-02-06T05:12:17.954Z,586.00
2023-02-06T05:13:18.033Z,585.00
2023-02-06T05:14:18.069Z,585.00
2023-02-06T05:15:18.143Z,586.00
2023-02-06T05:16:18.238Z,587.00
2023-02-06T05:17:18.266Z,585.00
2023-02-06T05:18:18.296Z,583.00
2023-02-06T05:19:18.351Z,583.00
2023-02-06T05:20:18.433Z,584.00
2023-02-06T05:21:18.504Z,585.00
2023-02-06T05:22:18.582Z,586.00
2023-02-06T05:23:18.641Z,589.00
2023-02-06T05:24:18.710Z,588.00
2023-02-06T05:25:18.779Z,591.00
2023-02-06T05:26:18.823Z,594.00
2023-02-06T05:27:18.899Z,593.00
2023-02-06T05:28:18.982Z,593.00
2023-02-06T05:29:19.028Z,591.00
2023-02-06T05:30:19.073Z,588.00
2023-02-06T05:31:19.213Z,585.00
2023-02-06T05:32:19.249Z,584.00
2023-02-06T05:33:19.234Z,584.00
2023-02-06T05:34:19.289Z,583.00
2023-02-06T05:35:19.394Z,584.00
2023-02-06T05:36:19.424Z,585.00
2023-02-06T05:37:19.521Z,584.00
2023-02-06T05:38:19.571Z,584.00
2023-02-06T05:39:19.620Z,584.00
2023-02-06T06:01:27.692Z,579.00
2023-02-06T08:04:22.549Z,2045.00
2023-02-06T08:14:22.417Z,2126.00
2023-02-06T08:15:22.504Z,2139.00
2023-02-06T08:16:22.571Z,2140.00
2023-02-06T08:17:22.571Z,2153.00
2023-02-06T08:18:22.577Z,2158.00
2023-02-06T08:19:22.621Z,2168.00
2023-02-06T08:21:22.697Z,2149.00
2023-02-06T08:22:22.708Z,2131.00
2023-02-06T08:23:22.749Z,2133.00
2023-02-06T08:24:22.785Z,2062.00
2023-02-06T08:26:22.882Z,1911.00
2023-02-06T08:27:22.914Z,1827.00
2023-02-06T08:28:23.096Z,1856.00
2023-02-06T08:29:23.460Z,1924.00
2023-02-06T08:31:23.222Z,1959.00
2023-02-06T08:32:23.247Z,1986.00
2023-02-06T08:33:23.257Z,1020.00
2023-02-06T08:34:23.254Z,798.00
2023-02-06T10:23:25.413Z,1372.00
2023-02-06T10:55:25.528Z,1543.00
2023-02-06T10:56:25.522Z,1565.00
2023-02-06T10:57:25.503Z,1683.00
2023-02-06T10:58:25.513Z,1679.00
2023-02-06T10:59:25.511Z,1683.00
2023-02-06T11:00:25.521Z,1693.00
2023-02-06T11:01:26.922Z,1708.00
2023-02-06T11:02:25.611Z,1805.00
2023-02-06T11:03:25.466Z,1793.00
2023-02-06T11:04:25.446Z,1789.00
2023-02-06T11:05:25.457Z,1798.00
2023-02-06T11:06:25.569Z,1823.00
2023-02-06T11:07:25.454Z,1846.00
2023-02-06T11:08:25.462Z,1851.00
2023-02-06T11:09:25.414Z,1863.00
2023-02-06T11:10:25.421Z,1886.00
2023-02-06T11:11:25.414Z,1913.00
2023-02-06T11:12:25.548Z,1926.00
2023-02-06T11:13:25.386Z,1928.00
2023-02-06T11:14:25.505Z,1929.00
2023-02-06T11:15:25.420Z,1952.00
2023-02-06T11:16:25.502Z,1987.00
2023-02-06T11:17:25.447Z,2046.00
2023-02-06T11:18:25.521Z,2029.00
2023-02-06T11:19:25.494Z,2023.00
2023-02-06T11:20:25.621Z,2033.00
2023-02-06T11:21:25.591Z,2043.00
2023-02-06T11:22:25.638Z,2067.00
2023-02-06T11:23:25.653Z,2053.00
2023-02-06T11:24:25.632Z,2054.00
2023-02-06T11:25:25.730Z,2074.00
2023-02-06T11:26:25.896Z,2100.00
2023-02-06T11:27:25.893Z,2111.00
2023-02-06T11:28:25.970Z,2107.00
2023-02-06T11:29:26.089Z,2131.00
2023-02-06T11:30:26.143Z,2133.00
2023-02-06T11:35:26.263Z,2261.00
2023-02-06T11:40:26.392Z,2022.00
2023-02-06T11:42:26.565Z,1999.00
2023-02-06T12:07:27.541Z,1522.00
2023-02-06T12:16:27.666Z,1416.00
2023-02-06T12:48:27.782Z,1156.00
2023-02-06T12:50:27.788Z,1143.00
2023-02-06T12:51:27.811Z,1136.00
2023-02-06T12:52:27.796Z,1125.00
2023-02-06T12:53:27.812Z,1117.00
2023-02-06T12:54:27.805Z,1110.00
2023-02-06T12:55:27.824Z,1102.00
2023-02-06T12:56:27.837Z,1101.00
2023-02-06T12:57:27.803Z,1099.00
2023-02-06T12:58:27.807Z,1096.00
2023-02-06T12:59:27.864Z,1094.00
2023-02-06T13:00:27.844Z,1092.00
2023-02-06T13:01:32.318Z,1083.00
2023-02-06T13:03:27.871Z,1074.00
2023-02-06T13:04:27.891Z,1068.00
2023-02-06T13:05:27.873Z,1057.00
2023-02-06T13:06:27.829Z,1050.00
2023-02-06T13:07:27.833Z,1046.00
2023-02-06T13:08:27.827Z,1040.00
2023-02-06T13:10:27.826Z,1023.00
2023-02-06T13:11:27.783Z,1014.00
2023-02-06T13:12:27.804Z,1006.00
2023-02-06T13:13:27.807Z,1000.00
2023-02-06T13:14:27.786Z,997.00
2023-02-06T13:15:27.780Z,994.00
2023-02-06T13:16:27.786Z,985.00
2023-02-06T13:17:27.769Z,980.00
2023-02-06T13:18:27.739Z,974.00
2023-02-06T13:19:27.811Z,968.00
2023-02-06T13:20:27.750Z,963.00
2023-02-06T13:21:27.733Z,960.00
2023-02-06T13:22:27.737Z,957.00
2023-02-06T13:23:27.717Z,951.00
2023-02-06T13:24:27.775Z,944.00
2023-02-06T13:25:27.707Z,938.00
2023-02-06T13:26:27.693Z,937.00
2023-02-06T13:27:27.734Z,932.00
2023-02-06T13:28:27.965Z,930.00
2023-02-06T13:29:27.784Z,927.00
2023-02-06T13:30:27.862Z,923.00
2023-02-06T13:31:27.948Z,922.00
2023-02-06T13:32:27.897Z,921.00
2023-02-06T13:33:27.888Z,917.00
2023-02-06T13:34:27.915Z,912.00
2023-02-06T13:35:27.925Z,913.00
2023-02-06T13:36:27.966Z,909.00
2023-02-06T13:37:27.966Z,906.00
2023-02-06T13:38:28.046Z,904.00
2023-02-06T13:39:28.072Z,901.00
2023-02-06T13:40:28.059Z,897.00
2023-02-06T13:41:28.161Z,891.00
2023-02-06T13:42:28.197Z,887.00
2023-02-06T13:43:29.917Z,881.00
2023-02-06T13:44:28.187Z,875.00
2023-02-06T13:45:28.231Z,869.00
2023-02-06T13:46:28.209Z,867.00
2023-02-06T13:47:28.176Z,865.00
2023-02-06T13:48:28.190Z,860.00
2023-02-06T13:49:28.138Z,861.00
2023-02-06T13:50:28.167Z,858.00
2023-02-06T13:51:28.158Z,858.00
2023-02-06T13:52:28.165Z,855.00
2023-02-06T13:53:28.146Z,853.00
2023-02-06T13:54:28.129Z,850.00
2023-02-06T13:55:28.085Z,846.00
2023-02-06T13:56:28.095Z,846.00
2023-02-06T13:57:28.086Z,842.00
2023-02-06T13:58:28.109Z,837.00
2023-02-06T13:59:28.120Z,785.00
2023-02-06T14:00:28.098Z,743.00
2023-02-06T14:01:28.121Z,771.00
2023-02-06T14:02:28.112Z,776.00
2023-02-06T14:03:28.082Z,786.00
2023-02-06T14:04:28.042Z,795.00
2023-02-06T14:05:28.020Z,784.00
2023-02-06T14:06:28.034Z,777.00
2023-02-06T14:07:28.049Z,771.00
2023-02-06T14:08:28.063Z,768.00
2023-02-06T14:09:29.417Z,766.00
2023-02-06T14:10:28.034Z,768.00
2023-02-06T14:11:27.988Z,770.00
2023-02-06T14:12:27.992Z,768.00
2023-02-06T14:13:28.006Z,768.00
2023-02-06T14:14:28.004Z,767.00
2023-02-06T14:15:27.991Z,767.00
2023-02-06T14:16:27.976Z,767.00
2023-02-06T14:17:28.583Z,763.00
2023-02-06T14:18:27.982Z,763.00
2023-02-06T14:19:27.998Z,760.00
2023-02-06T14:20:27.960Z,760.00
2023-02-06T14:21:27.951Z,756.00
2023-02-06T14:22:27.932Z,756.00
2023-02-06T14:23:27.925Z,751.00
2023-02-06T14:24:27.966Z,754.00
2023-02-06T14:25:27.921Z,823.00
2023-02-06T14:26:27.921Z,894.00
2023-02-06T14:27:27.983Z,927.00
2023-02-06T14:28:28.036Z,865.00
2023-02-06T14:30:28.213Z,797.00
2023-02-06T14:32:28.229Z,789.00
2023-02-06T14:34:28.334Z,835.00
2023-02-06T14:37:28.470Z,1021.00
2023-02-06T14:38:28.531Z,1037.00
2023-02-06T14:39:28.526Z,1100.00
2023-02-06T14:40:28.558Z,1119.00
2023-02-06T14:41:28.569Z,1116.00
2023-02-06T14:42:28.608Z,1139.00
2023-02-06T14:43:28.612Z,1164.00
2023-02-06T14:44:28.629Z,1204.00
2023-02-06T14:45:31.975Z,1208.00
2023-02-06T14:46:29.691Z,1217.00
2023-02-06T14:47:28.632Z,1229.00
2023-02-06T14:48:28.638Z,1251.00
2023-02-06T14:49:28.587Z,1259.00
2023-02-06T14:50:28.640Z,1272.00
2023-02-06T14:51:28.632Z,1326.00
2023-02-06T14:52:28.621Z,1343.00
2023-02-06T14:53:28.569Z,1351.00
2023-02-06T14:54:28.576Z,1298.00
2023-02-06T14:55:28.594Z,1154.00
2023-02-06T14:56:28.558Z,1147.00
2023-02-06T14:57:28.552Z,1112.00
2023-02-06T14:58:28.837Z,1115.00
2023-02-06T14:59:28.568Z,1108.00
2023-02-06T15:00:28.648Z,1066.00
2023-02-06T15:01:28.537Z,1067.00
2023-02-06T15:02:28.528Z,1047.00
2023-02-06T15:03:28.633Z,937.00
2023-02-06T15:04:28.484Z,949.00
2023-02-06T15:05:28.593Z,898.00
2023-02-06T15:06:28.549Z,876.00
2023-02-06T15:07:28.489Z,845.00
2023-02-06T15:08:28.527Z,781.00
2023-02-06T15:09:28.477Z,782.00
2023-02-06T15:10:28.483Z,776.00
2023-02-06T15:11:28.469Z,783.00
2023-02-06T15:12:28.552Z,781.00
2023-02-06T15:13:28.646Z,743.00
2023-02-06T15:14:28.607Z,826.00
2023-02-06T15:15:28.685Z,706.00
2023-02-06T15:16:28.736Z,706.00
2023-02-06T15:17:28.855Z,700.00
2023-02-06T15:18:28.795Z,705.00
2023-02-06T15:19:28.862Z,704.00
2023-02-06T15:20:28.910Z,700.00
2023-02-06T15:21:28.961Z,694.00
2023-02-06T15:22:29.026Z,688.00
2023-02-06T15:23:29.098Z,681.00
2023-02-06T15:24:29.147Z,673.00
2023-02-06T15:25:29.229Z,672.00
2023-02-06T15:26:29.229Z,679.00
2023-02-06T15:27:29.370Z,682.00
2023-02-06T15:28:29.267Z,682.00
2023-02-06T15:29:29.277Z,677.00
2023-02-06T15:30:29.337Z,676.00
2023-02-06T15:31:29.403Z,671.00
2023-02-06T15:32:29.350Z,666.00
2023-02-06T15:33:29.460Z,661.00
2023-02-06T15:34:29.528Z,659.00
2023-02-06T15:35:29.538Z,656.00
2023-02-06T15:36:29.641Z,655.00
2023-02-06T15:37:29.619Z,654.00
2023-02-06T15:38:29.624Z,653.00
2023-02-06T15:39:29.640Z,653.00
2023-02-06T15:40:29.677Z,649.00
2023-02-06T15:41:29.672Z,645.00
2023-02-06T15:42:29.687Z,645.00
2023-02-06T16:43:32.645Z,768.00
2023-02-06T17:09:32.409Z,891.00
2023-02-06T17:10:32.464Z,882.00
2023-02-06T17:11:32.544Z,880.00
2023-02-06T17:12:32.566Z,870.00
2023-02-06T17:13:32.642Z,862.00
2023-02-06T17:14:32.688Z,858.00
2023-02-06T17:15:32.723Z,854.00
2023-02-06T17:16:32.756Z,849.00
2023-02-06T17:17:32.807Z,838.00
2023-02-06T17:18:32.851Z,837.00
2023-02-06T17:19:32.848Z,834.00
2023-02-06T17:20:32.891Z,834.00
2023-02-06T17:21:32.913Z,829.00
2023-02-06T17:22:32.926Z,827.00
2023-02-06T17:23:32.964Z,827.00
2023-02-06T17:24:32.973Z,825.00
2023-02-06T17:25:33.011Z,822.00
2023-02-06T17:26:33.021Z,818.00
2023-02-06T17:27:33.044Z,813.00
2023-02-06T17:28:33.092Z,808.00
2023-02-06T17:29:33.094Z,806.00
2023-02-06T17:30:33.135Z,800.00
2023-02-06T17:31:33.214Z,798.00
2023-02-06T17:32:33.122Z,800.00
2023-02-06T17:33:33.157Z,798.00
2023-02-06T17:34:33.192Z,795.00
2023-02-06T17:35:33.200Z,794.00
2023-02-06T17:36:33.212Z,787.00
2023-02-06T17:37:33.208Z,785.00
2023-02-06T17:38:33.231Z,779.00
2023-02-06T17:39:33.268Z,774.00
2023-02-06T17:40:33.311Z,769.00
2023-02-06T17:41:33.304Z,765.00
2023-02-06T17:42:33.304Z,763.00
2023-02-06T17:43:33.308Z,759.00
2023-02-06T17:44:33.344Z,759.00
2023-02-06T17:45:33.371Z,759.00
2023-02-06T17:46:33.441Z,756.00
2023-02-06T17:47:33.387Z,755.00
2023-02-06T17:48:35.461Z,751.00
2023-02-06T17:49:33.392Z,750.00
2023-02-06T17:50:33.406Z,744.00
2023-02-06T17:51:33.352Z,740.00
2023-02-06T17:52:33.355Z,740.00
2023-02-06T17:53:33.357Z,738.00
2023-02-06T17:54:33.357Z,737.00
2023-02-06T17:55:33.345Z,737.00
2023-02-06T17:56:33.321Z,736.00
2023-02-06T17:57:33.341Z,734.00
2023-02-06T17:58:33.305Z,732.00
2023-02-06T17:59:33.315Z,730.00
2023-02-06T18:00:33.310Z,726.00
2023-02-06T18:01:33.414Z,723.00
2023-02-06T18:02:33.399Z,722.00
2023-02-06T18:03:33.284Z,719.00
2023-02-06T18:04:33.297Z,719.00
2023-02-06T18:05:33.260Z,717.00
2023-02-06T18:06:33.254Z,712.00
2023-02-06T18:07:33.253Z,711.00
2023-02-06T18:08:33.270Z,709.00
2023-02-06T18:09:33.236Z,704.00
2023-02-06T18:10:33.223Z,704.00
2023-02-06T18:11:33.211Z,705.00
2023-02-06T18:12:33.197Z,703.00
2023-02-06T18:13:33.189Z,702.00
2023-02-06T18:14:33.226Z,702.00
2023-02-06T18:15:33.216Z,698.00
2023-02-06T18:16:33.216Z,695.00
2023-02-06T18:17:33.192Z,696.00
2023-02-06T18:18:33.177Z,694.00
2023-02-06T18:19:33.185Z,693.00
2023-02-06T18:20:33.171Z,696.00
2023-02-06T18:21:33.147Z,697.00
2023-02-06T18:22:33.141Z,694.00
2023-02-06T18:23:33.152Z,690.00
2023-02-06T18:24:33.117Z,686.00
2023-02-06T18:25:33.134Z,685.00
2023-02-06T18:26:33.146Z,685.00
2023-02-06T18:27:33.133Z,683.00
2023-02-06T18:28:33.123Z,680.00
2023-02-06T18:29:47.602Z,682.00
2023-02-06T18:30:34.166Z,682.00
2023-02-06T18:31:33.193Z,684.00
2023-02-06T18:32:33.086Z,683.00
2023-02-06T18:33:33.078Z,680.00
2023-02-06T18:34:33.090Z,677.00
2023-02-06T18:35:33.078Z,679.00
2023-02-06T18:36:33.053Z,678.00
2023-02-06T18:37:33.067Z,674.00
2023-02-06T18:38:33.040Z,671.00
2023-02-06T18:39:33.064Z,670.00
2023-02-06T18:40:33.061Z,670.00
2023-02-06T18:41:33.036Z,669.00
2023-02-06T18:42:33.049Z,666.00
2023-02-06T18:43:33.061Z,666.00
2023-02-06T18:44:33.013Z,666.00
2023-02-06T18:45:33.055Z,666.00
2023-02-06T18:46:33.031Z,664.00
2023-02-06T18:47:33.014Z,663.00
2023-02-06T18:48:33.009Z,661.00
2023-02-06T18:49:32.975Z,659.00
2023-02-06T18:50:32.997Z,656.00
2023-02-06T18:51:32.986Z,655.00
2023-02-06T18:52:33.037Z,655.00
2023-02-06T18:53:33.044Z,651.00
2023-02-06T18:54:33.057Z,649.00
2023-02-06T18:55:33.068Z,648.00
2023-02-06T18:56:33.068Z,650.00
2023-02-06T18:57:33.078Z,649.00
2023-02-06T18:58:33.185Z,650.00
2023-02-06T18:59:33.158Z,650.00
2023-02-06T19:00:33.210Z,648.00
2023-02-06T19:01:33.240Z,648.00
2023-02-06T19:19:33.482Z,632.00
2023-02-06T20:12:34.476Z,607.00
2023-02-06T20:14:34.552Z,606.00
2023-02-06T20:15:34.561Z,608.00
2023-02-06T20:16:34.597Z,608.00
2023-02-06T20:17:34.578Z,604.00
2023-02-06T20:18:34.597Z,603.00
2023-02-06T20:19:34.606Z,603.00
2023-02-06T20:20:34.728Z,603.00
2023-02-06T20:21:34.672Z,605.00
2023-02-06T20:22:34.679Z,606.00
2023-02-06T20:23:34.671Z,606.00
2023-02-06T20:24:34.677Z,606.00
2023-02-06T20:25:34.686Z,606.00
2023-02-06T20:26:34.704Z,605.00
2023-02-06T20:27:34.710Z,600.00
2023-02-06T20:28:34.814Z,599.00
2023-02-06T20:29:34.809Z,599.00
2023-02-06T20:30:35.005Z,598.00
2023-02-06T20:31:34.906Z,596.00
2023-02-06T20:32:34.897Z,594.00
2023-02-06T20:33:34.967Z,593.00
2023-02-06T20:34:34.964Z,593.00
2023-02-06T20:35:35.005Z,592.00
2023-02-06T20:36:34.998Z,594.00
2023-02-06T20:37:35.001Z,596.00
2023-02-06T20:38:35.014Z,597.00
2023-02-06T20:39:35.096Z,598.00
2023-02-06T20:40:35.338Z,599.00
2023-02-06T20:41:35.114Z,600.00
2023-02-06T20:42:35.112Z,599.00
2023-02-06T20:45:35.157Z,592.00
2023-02-06T20:46:35.155Z,592.00
2023-02-06T20:47:35.159Z,593.00
2023-02-06T20:48:35.143Z,593.00
2023-02-06T20:49:35.159Z,591.00
2023-02-06T20:50:35.670Z,591.00
2023-02-06T20:51:35.185Z,590.00
2023-02-06T20:52:35.195Z,591.00
2023-02-06T20:53:35.199Z,591.00
2023-02-06T20:54:35.213Z,588.00
2023-02-06T20:55:35.218Z,591.00
2023-02-06T20:56:35.270Z,590.00
2023-02-06T20:57:35.522Z,589.00
2023-02-06T20:58:35.377Z,588.00
2023-02-06T20:59:35.387Z,587.00
2023-02-06T21:00:35.523Z,584.00
2023-02-06T21:01:35.465Z,585.00
2023-02-06T21:02:35.467Z,585.00
2023-02-06T21:03:35.469Z,586.00
2023-02-06T21:04:35.487Z,586.00
2023-02-06T21:05:35.478Z,590.00
2023-02-06T21:06:35.476Z,588.00
2023-02-06T21:07:35.515Z,584.00
2023-02-06T21:08:35.584Z,584.00
2023-02-06T21:09:35.669Z,586.00
2023-02-06T21:10:36.028Z,587.00
2023-02-06T21:11:35.634Z,590.00
2023-02-06T21:12:35.649Z,591.00
2023-02-06T21:13:35.666Z,591.00
2023-02-06T21:14:35.676Z,592.00
2023-02-06T21:15:35.694Z,592.00
2023-02-06T21:16:35.700Z,590.00
2023-02-06T21:17:35.717Z,590.00
2023-02-06T21:18:35.754Z,590.00
2023-02-06T21:19:35.778Z,589.00
2023-02-06T21:20:36.112Z,587.00
2023-02-06T21:21:35.792Z,587.00
2023-02-06T21:22:35.780Z,587.00
2023-02-06T21:23:35.802Z,586.00
2023-02-06T21:24:35.812Z,585.00
2023-02-06T21:25:35.849Z,584.00
2023-02-06T21:26:35.990Z,582.00
2023-02-06T21:27:35.937Z,579.00
2023-02-06T21:28:35.938Z,578.00
2023-02-06T21:29:35.943Z,579.00
2023-02-06T21:30:36.480Z,578.00
2023-02-06T21:31:38.099Z,578.00
2023-02-06T21:32:36.017Z,578.00
2023-02-06T21:33:36.020Z,579.00
2023-02-06T21:34:36.070Z,580.00
2023-02-06T21:35:36.031Z,581.00
2023-02-06T21:36:36.068Z,582.00
2023-02-06T21:37:36.088Z,581.00
2023-02-06T21:38:36.097Z,582.00
2023-02-06T21:39:36.123Z,582.00
2023-02-06T21:40:36.096Z,582.00
2023-02-06T21:41:36.152Z,582.00
2023-02-06T21:42:36.120Z,582.00
2023-02-06T21:43:36.146Z,582.00
2023-02-06T21:44:36.164Z,583.00
2023-02-06T21:45:36.457Z,584.00
2023-02-06T21:46:36.217Z,584.00
2023-02-06T21:47:36.180Z,585.00
2023-02-06T21:48:36.162Z,584.00
2023-02-06T21:49:36.177Z,583.00
2023-02-06T21:50:36.174Z,585.00
2023-02-06T21:51:36.314Z,586.00
2023-02-06T21:52:36.378Z,584.00
2023-02-06T21:53:36.510Z,581.00
2023-02-06T21:54:36.510Z,579.00
2023-02-06T21:55:36.819Z,577.00
2023-02-06T21:56:36.601Z,577.00
2023-02-06T21:57:36.621Z,575.00
2023-02-06T21:58:36.647Z,573.00
2023-02-06T21:59:36.625Z,573.00
2023-02-06T22:00:36.630Z,574.00
2023-02-06T22:01:36.707Z,574.00
2023-02-06T22:02:36.736Z,574.00
2023-02-06T22:03:36.829Z,571.00
2023-02-06T22:04:36.931Z,574.00
2023-02-06T22:05:37.306Z,572.00
2023-02-06T22:06:37.092Z,572.00
2023-02-06T22:07:37.107Z,573.00
2023-02-06T22:08:37.097Z,574.00
2023-02-06T22:09:37.111Z,575.00
2023-02-06T22:10:37.135Z,577.00
2023-02-06T22:11:37.109Z,578.00
2023-02-06T22:12:37.136Z,577.00
2023-02-06T22:13:37.130Z,577.00
2023-02-06T22:14:37.165Z,579.00
2023-02-06T22:15:37.413Z,581.00
2023-02-06T22:16:37.220Z,579.00
2023-02-06T22:17:37.183Z,581.00
2023-02-06T22:18:37.240Z,580.00
2023-02-06T22:19:37.221Z,580.00
2023-02-06T22:20:37.248Z,581.00
2023-02-06T22:21:37.333Z,582.00
2023-02-06T22:22:37.411Z,581.00
2023-02-06T22:23:37.322Z,584.00
2023-02-06T22:24:37.330Z,583.00
2023-02-06T22:25:37.658Z,583.00
2023-02-06T22:26:37.337Z,584.00
2023-02-06T22:27:37.342Z,585.00
2023-02-06T22:28:37.349Z,584.00
2023-02-06T22:29:37.372Z,580.00
2023-02-06T22:30:38.915Z,582.00
2023-02-06T22:31:37.427Z,583.00
2023-02-06T22:32:37.389Z,581.00
2023-02-06T22:33:37.394Z,580.00
2023-02-06T22:34:37.339Z,580.00
2023-02-06T22:35:37.635Z,582.00
2023-02-06T22:36:37.351Z,583.00
2023-02-06T22:37:37.323Z,584.00
2023-02-06T22:38:37.325Z,586.00
2023-02-06T22:39:37.307Z,586.00
2023-02-06T22:40:37.290Z,582.00
2023-02-06T22:41:37.311Z,581.00
2023-02-06T22:42:37.314Z,578.00
2023-02-06T22:43:37.278Z,577.00
2023-02-06T22:44:37.297Z,576.00
2023-02-06T22:45:37.573Z,578.00
2023-02-06T22:46:37.325Z,578.00
2023-02-06T22:47:37.249Z,577.00
2023-02-06T22:48:37.280Z,577.00
2023-02-06T22:49:37.260Z,577.00
2023-02-06T22:50:37.258Z,578.00
2023-02-06T22:51:37.202Z,578.00
2023-02-06T22:52:37.203Z,578.00
2023-02-06T22:53:37.210Z,578.00
2023-02-06T22:54:37.185Z,578.00
2023-02-06T22:55:37.455Z,578.00
2023-02-06T22:56:37.333Z,576.00
2023-02-06T22:57:37.242Z,577.00
2023-02-06T22:58:37.215Z,578.00
2023-02-06T22:59:37.200Z,577.00
2023-02-06T23:00:37.219Z,575.00
2023-02-06T23:01:37.205Z,575.00
2023-02-06T23:02:37.132Z,575.00
2023-02-06T23:03:37.178Z,580.00
2023-02-06T23:04:37.155Z,581.00
2023-02-06T23:05:37.478Z,580.00
2023-02-06T23:06:37.137Z,579.00
2023-02-06T23:07:37.123Z,579.00
2023-02-06T23:08:37.132Z,578.00
2023-02-06T23:09:37.103Z,580.00
2023-02-06T23:10:37.122Z,580.00
2023-02-06T23:11:37.097Z,580.00
2023-02-06T23:12:37.081Z,580.00
2023-02-06T23:13:37.105Z,578.00
2023-02-06T23:14:37.111Z,575.00
2023-02-06T23:15:39.853Z,576.00
2023-02-06T23:16:37.072Z,579.00
2023-02-06T23:17:37.056Z,583.00
2023-02-06T23:18:37.046Z,582.00
2023-02-06T23:19:37.073Z,583.00
2023-02-06T23:20:37.046Z,583.00
2023-02-06T23:21:37.052Z,583.00
2023-02-06T23:22:37.018Z,581.00
2023-02-06T23:23:37.017Z,581.00
2023-02-06T23:24:37.017Z,579.00
2023-02-06T23:25:37.278Z,581.00
2023-02-06T23:26:37.012Z,579.00
2023-02-06T23:27:37.012Z,580.00
2023-02-06T23:28:37.821Z,580.00
2023-02-06T23:29:36.988Z,578.00
2023-02-06T23:30:36.982Z,578.00
2023-02-06T23:31:37.107Z,576.00